Weather reports worldwide

Advertisment
Buzenol, Belgium (6484): temperature & dewpoint: 20.10.2020 10:00:00 - 26.10.2020 10:00:00 (CET)Buzenol, Belgium (6484): wind speed & gusts: 20.10.2020 10:00:00 - 26.10.2020 10:00:00 (CET)Buzenol, Belgium (6484): wind direction: 20.10.2020 10:00:00 - 26.10.2020 10:00:00 (CET)Buzenol, Belgium (6484): reduced air pressure: 20.10.2020 10:00:00 - 26.10.2020 10:00:00 (CET)Buzenol, Belgium (6484): sunshine duration: 20.10.2020 10:00:00 - 26.10.2020 10:00:00 (CET)Buzenol, Belgium (6484): precipitation: 20.10.2020 10:00:00 - 26.10.2020 10:00:00 (CET)
Date & Time tt [°C] td [°C] ff [km/h] ff [kn] fx [km/h] fx [kn] dd ppp [hPa] sd [min] rr [mm]
26.10.2020 10:00:00 8,0 6,0 13 7 34 19 SW 1005,5 0 0,0
26.10.2020 09:00:00 7,9 6,3 14 8 25 13 SW 1005,4 0 0,0
26.10.2020 08:00:00 7,9 6,8 15 8 25 14 SSW 1004,7 0 0,0
26.10.2020 07:00:00 8,1 6,9 14 8 27 15 SW 1004,3 0 0,0
26.10.2020 06:00:00 8,2 7,1 12 7 21 12 SW 1003,8 0 0,0
26.10.2020 05:00:00 8,6 7,4 11 6 22 12 SW 1003,7 0 0,0
26.10.2020 04:00:00 8,9 7,9 12 7 21 11 SSW 1003,5 0 0,0
26.10.2020 03:00:00 9,1 8,3 11 6 19 10 SSW 1003,7 0 0,0
26.10.2020 02:00:00 9,2 8,1 13 7 20 11 SW 1003,4 0 0,0
26.10.2020 01:00:00 9,3 8,2 11 6 25 14 SW 1002,9 0 0,1
26.10.2020 00:00:00 9,6 8,9 12 7 18 10 SSW 1004,0 0 1,0
25.10.2020 23:00:00 9,5 8,6 10 5 21 12 SSW 1004,2 0 0,0
25.10.2020 22:00:00 9,6 8,6 14 8 26 14 S 1004,6 0 0,0
25.10.2020 21:00:00 9,7 8,6 15 8 21 12 SSW 1004,6 0 0,0
25.10.2020 20:00:00 9,7 8,7 14 8 22 12 SSW 1005,0 0 0,0
25.10.2020 19:00:00 9,9 9,0 11 6 29 15 SSW 1005,1 0 0,1
25.10.2020 18:00:00 10,0 9,2 13 7 18 10 SSW 1005,0 0 0,2
25.10.2020 17:00:00 10,1 9,2 13 7 25 14 SSW 1005,2 0 0,9
25.10.2020 16:00:00 10,3 9,3 16 9 26 14 SSW 1004,9 0 0,5
25.10.2020 15:00:00 10,7 9,7 17 9 26 14 SSW 1004,9 0 0,8
25.10.2020 14:00:00 10,6 9,8 16 9 26 14 SSW 1005,2 0 1,6
25.10.2020 13:00:00 10,5 9,7 18 10 38 21 SSW 1005,9 0 2,6
25.10.2020 12:00:00 10,7 9,3 16 9 27 15 SSW 1005,8 0 1,4
25.10.2020 11:00:00 10,7 9,1 16 9 26 14 S 1006,5 0 0,5
25.10.2020 10:00:00 11,8 8,4 18 10 29 16 SSW 1005,9 0 0,0
25.10.2020 09:00:00 11,7 8,2 15 8 26 14 SSW 1006,3 0 0,0
25.10.2020 08:00:00 10,7 8,4 12 6 17 9 SSW 1006,8 0 0,0
25.10.2020 07:00:00 10,2 8,4 14 8 22 12 S 1007,0 0 0,0
25.10.2020 06:00:00 10,5 8,6 16 9 27 15 S 1007,3 0 0,0
25.10.2020 05:00:00 10,5 8,8 18 10 30 16 S 1007,4 0 0,1
25.10.2020 04:00:00 11,1 8,7 16 9 30 16 S 1008,7 0 0,0
25.10.2020 03:00:00 11,2 8,8 19 10 38 21 S 1009,0 0 0,0
25.10.2020 02:00:00 11,9 9,2 26 14 36 19 S 1009,2 0 0,0
25.10.2020 01:00:00 - - - - - - - - - -
25.10.2020 00:00:00 12,4 10,0 18 10 33 18 SSW 1011,2 0 0,0
24.10.2020 23:00:00 12,4 10,4 18 10 32 17 SSW 1011,6 0 0,0
24.10.2020 22:00:00 12,4 10,7 19 11 35 19 SSW 1012,2 0 0,0
24.10.2020 21:00:00 12,2 10,9 21 12 35 19 SSW 1012,3 0 0,0
24.10.2020 20:00:00 12,1 11,1 16 9 29 16 S 1013,1 0 0,0
24.10.2020 19:00:00 12,0 11,1 22 12 32 17 SSW 1013,7 0 0,0
24.10.2020 18:00:00 11,9 11,2 21 11 32 17 SSW 1013,9 0 0,2
24.10.2020 17:00:00 11,9 11,1 23 12 35 19 SSW 1014,3 0 0,5
24.10.2020 16:00:00 12,1 10,9 20 11 31 17 SSW 1014,4 0 0,1
24.10.2020 15:00:00 12,0 11,0 19 11 37 20 SSW 1015,1 0 0,0
24.10.2020 14:00:00 12,2 10,5 20 11 35 19 SSW 1015,5 0 0,0
24.10.2020 13:00:00 11,9 10,4 16 9 30 16 SSW 1016,0 0 0,0
24.10.2020 12:00:00 11,5 9,9 19 10 31 17 SSW 1016,7 0 0,0
24.10.2020 11:00:00 11,0 9,2 21 12 38 20 SSW 1016,9 0 0,0
24.10.2020 10:00:00 11,0 8,7 20 11 31 17 SSW 1016,8 0 0,0
24.10.2020 09:00:00 10,6 8,3 16 8 23 12 SSW 1016,7 0 0,0
24.10.2020 08:00:00 10,1 8,4 11 6 27 15 SSW 1016,9 0 0,0
24.10.2020 07:00:00 10,3 8,6 14 8 35 19 SW 1016,7 0 0,0
24.10.2020 06:00:00 10,8 9,6 13 7 29 16 SW 1016,5 0 0,0
24.10.2020 05:00:00 11,3 10,4 13 7 25 14 SW 1016,0 0 0,0
24.10.2020 04:00:00 11,5 10,8 12 6 19 10 SSW 1015,8 0 0,0
24.10.2020 03:00:00 11,7 10,9 11 6 29 15 WSW 1016,0 0 0,0
24.10.2020 02:00:00 11,8 11,0 12 7 24 13 SW 1015,8 0 0,0
24.10.2020 01:00:00 11,7 11,0 7 4 20 11 SW 1015,8 0 0,0
24.10.2020 00:00:00 12,0 11,1 9 5 17 9 WSW 1015,9 0 0,0
23.10.2020 23:00:00 12,2 11,6 9 5 17 9 SW 1015,6 0 0,3
23.10.2020 22:00:00 11,9 11,3 10 5 16 9 SW 1015,4 0 0,0
23.10.2020 21:00:00 11,8 10,7 10 5 16 8 WSW 1014,8 0 0,0
23.10.2020 20:00:00 12,8 12,2 6 3 13 7 SSW 1014,1 0 0,0
23.10.2020 19:00:00 13,3 12,5 7 4 18 10 SW 1013,3 0 0,0
23.10.2020 18:00:00 13,5 12,6 10 5 17 9 SSW 1013,0 0 0,1
23.10.2020 17:00:00 13,9 12,8 10 6 23 13 SW 1012,6 5 0,5
23.10.2020 16:00:00 14,2 13,0 9 5 19 10 SW 1012,2 0 0,0
23.10.2020 15:00:00 14,1 12,9 9 5 23 12 SW 1011,8 0 0,0
23.10.2020 14:00:00 13,7 13,0 10 6 24 13 SW 1012,0 0 0,1
23.10.2020 13:00:00 13,3 12,8 11 6 21 11 SW 1012,3 0 0,2
23.10.2020 12:00:00 13,4 12,7 13 7 20 11 SSW 1012,7 0 0,0
23.10.2020 11:00:00 13,1 12,5 10 5 20 11 S 1012,6 0 0,0
23.10.2020 10:00:00 12,9 12,3 6 3 8 4 SSW 1012,7 0 0,3
23.10.2020 09:00:00 12,8 12,3 5 3 14 8 S 1012,6 0 0,3
23.10.2020 08:00:00 13,0 12,4 8 4 16 9 SSW 1012,5 0 0,0
23.10.2020 07:00:00 13,0 12,4 7 4 13 7 SW 1012,5 0 0,0
23.10.2020 06:00:00 13,0 12,4 5 3 10 6 WSW 1012,4 0 0,3
23.10.2020 05:00:00 13,0 12,4 6 4 10 5 SSE 1012,2 0 0,9
23.10.2020 04:00:00 13,3 12,4 8 4 15 8 S 1013,1 0 0,3
23.10.2020 03:00:00 13,7 12,4 10 6 17 9 SSW 1013,5 0 0,0
23.10.2020 02:00:00 14,0 12,5 11 6 18 10 SSW 1013,8 0 0,0
23.10.2020 01:00:00 14,2 12,8 11 6 15 8 SSW 1014,2 0 0,0
23.10.2020 00:00:00 14,3 12,9 10 5 13 7 SSW 1014,0 0 0,0
22.10.2020 23:00:00 14,3 12,9 8 5 13 7 SSW 1014,3 0 0,0
22.10.2020 22:00:00 13,9 12,5 6 4 13 7 S 1014,6 0 0,0
22.10.2020 21:00:00 14,5 12,6 7 4 16 9 SSW 1014,0 0 0,0
22.10.2020 20:00:00 15,5 12,8 9 5 21 11 SSW 1013,9 0 0,0
22.10.2020 19:00:00 15,9 12,8 14 8 22 12 SSW 1014,0 0 0,0
22.10.2020 18:00:00 16,2 12,5 12 7 23 12 SSW 1013,7 0 0,0
22.10.2020 17:00:00 17,2 13,1 13 7 29 16 SSW 1013,1 4 0,0
22.10.2020 16:00:00 18,1 13,2 16 8 29 16 SSW 1012,7 30 0,0
22.10.2020 15:00:00 18,7 13,3 18 10 29 15 SSW 1012,6 32 0,0
22.10.2020 14:00:00 18,7 13,2 18 10 31 17 SSW 1012,9 50 0,0
22.10.2020 13:00:00 17,3 12,9 14 8 23 13 SSW 1013,6 1 0,0
22.10.2020 12:00:00 16,5 13,1 11 6 24 13 SSW 1014,1 16 0,0
22.10.2020 11:00:00 16,2 12,6 16 8 25 14 SSW 1014,1 60 0,0
22.10.2020 10:00:00 14,0 12,5 7 4 16 9 SSE 1014,5 15 0,0
22.10.2020 09:00:00 13,4 12,1 7 4 16 9 S 1014,9 44 0,0
22.10.2020 08:00:00 12,6 11,9 11 6 18 10 SSW 1014,1 8 0,0
22.10.2020 07:00:00 13,1 12,4 7 4 16 9 SSW 1013,3 0 0,2
22.10.2020 06:00:00 13,4 12,7 12 7 27 15 SSW 1012,9 0 3,0
22.10.2020 05:00:00 13,5 12,5 13 7 29 16 SSW 1013,1 0 4,2
22.10.2020 04:00:00 13,9 11,8 9 5 23 13 SSW 1012,6 0 0,0
22.10.2020 03:00:00 14,0 11,9 14 8 23 12 SSW 1012,6 0 0,0
22.10.2020 02:00:00 14,0 11,9 11 6 16 9 SSW 1012,5 0 0,0
22.10.2020 01:00:00 15,0 12,4 11 6 21 12 SSW 1011,7 0 0,0
22.10.2020 00:00:00 15,3 12,4 12 7 21 12 SSW 1011,3 0 0,0
21.10.2020 23:00:00 15,9 12,4 12 7 29 15 SW 1010,8 0 0,0
21.10.2020 22:00:00 16,2 12,5 20 11 30 16 SW 1010,2 0 0,0
21.10.2020 21:00:00 16,2 12,5 16 9 27 15 SW 1009,5 0 0,0
21.10.2020 20:00:00 16,4 12,7 17 9 31 17 SW 1009,0 0 0,0
21.10.2020 19:00:00 16,4 12,9 14 8 27 14 SSW 1008,4 0 0,0
21.10.2020 18:00:00 16,7 12,9 15 8 37 20 SSW 1007,7 0 0,1
21.10.2020 17:00:00 18,5 11,9 18 10 36 20 SW 1006,8 1 0,0
21.10.2020 16:00:00 19,3 11,3 21 11 41 22 SW 1006,0 3 0,0
21.10.2020 15:00:00 19,2 10,7 26 14 50 27 SSW 1005,2 10 0,0
21.10.2020 14:00:00 19,6 10,6 32 17 49 26 SSW 1004,8 39 0,0
21.10.2020 13:00:00 17,7 10,0 29 16 46 25 SSW 1005,2 29 0,0
21.10.2020 12:00:00 16,0 9,7 23 12 41 22 SSW 1005,7 0 0,0
21.10.2020 11:00:00 14,0 9,0 14 7 27 15 S 1006,3 0 0,0
21.10.2020 10:00:00 12,9 8,0 18 10 33 18 S 1006,5 0 0,0
21.10.2020 09:00:00 11,7 7,7 17 9 26 14 SSE 1006,6 0 0,2
21.10.2020 08:00:00 10,4 8,2 6 3 9 5 S 1007,0 0 0,0
21.10.2020 07:00:00 10,4 8,3 4 2 23 12 S 1006,4 0 0,3
21.10.2020 06:00:00 10,4 8,5 13 7 26 14 SSE 1006,9 0 0,8
21.10.2020 05:00:00 10,7 8,5 14 8 20 11 S 1007,3 0 0,2
21.10.2020 04:00:00 10,0 8,9 6 3 8 5 SSE 1007,7 0 0,6
21.10.2020 03:00:00 10,1 9,0 4 2 8 4 S 1008,5 0 0,1
21.10.2020 02:00:00 10,1 9,4 5 3 7 4 SE 1009,0 0 0,2
21.10.2020 01:00:00 10,6 9,9 4 2 8 5 S 1009,3 0 0,2
21.10.2020 00:00:00 11,0 10,3 4 2 5 3 S 1009,5 0 0,2
20.10.2020 23:00:00 11,3 10,5 4 2 7 4 SE 1010,0 0 0,4
20.10.2020 22:00:00 11,4 10,5 5 3 6 4 E 1010,1 0 0,0
20.10.2020 21:00:00 11,6 10,4 4 2 12 6 NW 1010,2 0 0,0
20.10.2020 20:00:00 12,0 10,5 6 3 13 7 S 1011,1 0 0,0
20.10.2020 19:00:00 12,1 10,5 7 4 16 9 S 1011,5 0 0,0
20.10.2020 18:00:00 12,2 10,6 7 4 12 7 S 1011,3 0 0,0
20.10.2020 17:00:00 12,7 11,9 5 3 8 4 S 1011,8 0 0,1
20.10.2020 16:00:00 13,1 11,7 4 2 7 4 S 1011,8 0 0,1
20.10.2020 15:00:00 13,3 11,2 5 3 10 5 SSE 1012,2 0 0,1
20.10.2020 14:00:00 12,4 10,8 6 4 16 8 S 1012,8 0 0,1
20.10.2020 13:00:00 12,7 9,9 14 7 26 14 S 1012,9 0 0,1
20.10.2020 12:00:00 12,0 8,9 7 4 17 9 SSE 1013,4 0 0,1
20.10.2020 11:00:00 11,7 8,4 14 8 20 11 SSW 1013,4 0 0,0
20.10.2020 10:00:00 10,4 7,9 6 3 14 7 S 1013,5 0 0,0

tt = temperature
td = dewpoint
ff = wind speed
fx = gusts
dd = wind direction
ppp = reduced air pressure
sd = sunshine duration
rr = precipitation

Next stations